Time;durP1;ratioP1;P1;durP2;ratioP2;P2;SDS_P1;SDS_P2;PMS_P1;PMS_P2;Temp;Humidity;BMP_temperature;BMP_pressure;BME280_temperature;BME280_humidity;BME280_pressure;Samples;Min_cycle;Max_cycle;Signal;HPM_P1;HPM_P2
2022/01/30 00:00:14;;;;;;;;;7.25;7.25;;;;;11.74;70.34;102709.41;4991073;27;45929;-71
2022/01/30 00:02:39;;;;;;;;;7.75;7.75;;;;;11.61;70.44;102691.78;4992328;27;45722;-71
2022/01/30 00:05:06;;;;;;;;;11.25;9.00;;;;;11.81;70.55;102724.97;4999309;27;45425;-70
2022/01/30 00:07:32;;;;;;;;;14.50;8.75;;;;;11.85;70.78;102716.28;5001059;27;45508;-71
2022/01/30 00:09:57;;;;;;;;;8.75;8.75;;;;;11.84;70.21;102706.38;4992150;27;46268;-72
2022/01/30 00:12:34;;;;;;;;;15.75;13.50;;;;;11.34;70.80;102624.31;4991670;27;45287;-69
2022/01/30 00:14:59;;;;;;;;;6.75;6.75;;;;;11.52;71.19;102646.72;4992250;27;45315;-70
2022/01/30 00:17:33;;;;;;;;;6.50;6.00;;;;;11.87;71.03;102716.34;4993326;27;45710;-69
2022/01/30 00:20:03;;;;;;;;;6.25;6.25;;;;;11.72;70.59;102705.75;5007298;28;46192;-70
2022/01/30 00:25:00;;;;;;;;;6.00;4.75;;;;;11.70;71.06;102686.00;4992463;27;45436;-70
2022/01/30 00:27:32;;;;;;;;;10.50;8.00;;;;;11.76;70.59;102702.38;4993232;27;45456;-69
2022/01/30 00:29:58;;;;;;;;;9.75;7.00;;;;;11.80;70.62;102705.31;4993269;27;45472;-69
2022/01/30 00:32:23;;;;;;;;;6.50;4.25;;;;;11.80;70.68;102697.28;4992567;28;45425;-72
2022/01/30 00:34:49;;;;;;;;;8.00;6.00;;;;;11.69;70.51;102665.41;4992115;27;45470;-70
2022/01/30 00:37:15;;;;;;;;;8.75;7.25;;;;;11.87;71.07;102702.97;4991780;27;45421;-71
2022/01/30 00:39:41;;;;;;;;;1.75;1.00;;;;;11.66;70.57;102673.28;4991681;28;47506;-71
2022/01/30 00:42:06;;;;;;;;;9.75;8.00;;;;;11.82;70.67;102694.69;5021614;28;45745;-70
2022/01/30 00:44:32;;;;;;;;;5.50;5.50;;;;;11.79;70.70;102690.06;4992120;28;45421;-70
2022/01/30 00:46:58;;;;;;;;;7.50;7.25;;;;;11.74;70.47;102686.22;4992836;27;45422;-70
2022/01/30 00:49:25;;;;;;;;;7.75;7.75;;;;;11.80;70.64;102693.69;4992094;27;45562;-70
2022/01/30 00:51:50;;;;;;;;;8.50;6.75;;;;;11.72;70.22;102673.63;4991683;27;45579;-71
2022/01/30 00:54:16;;;;;;;;;9.75;7.00;;;;;11.79;70.78;102694.50;4991432;27;45430;-71
2022/01/30 00:56:41;;;;;;;;;7.25;7.00;;;;;11.52;71.46;102644.03;4974740;28;45389;-71
2022/01/30 00:59:06;;;;;;;;;8.50;7.00;;;;;11.51;71.23;102633.25;4991963;28;45501;-69
2022/01/30 01:01:32;;;;;;;;;9.75;7.75;;;;;11.59;70.90;102640.81;4991795;27;45410;-70
2022/01/30 01:03:58;;;;;;;;;6.00;5.50;;;;;11.73;71.39;102672.75;4991813;27;45476;-71
2022/01/30 01:06:23;;;;;;;;;6.75;4.75;;;;;11.70;71.36;102677.97;4992167;27;45386;-71
2022/01/30 01:08:53;;;;;;;;;6.00;5.00;;;;;11.56;70.91;102651.38;4991458;27;46045;-71
2022/01/30 01:24:07;;;;;;;;;5.50;5.50;;;;;11.53;71.00;102647.63;4991518;27;45544;-69
2022/01/30 01:26:34;;;;;;;;;6.25;5.25;;;;;11.57;71.41;102655.91;4991679;27;45633;-70
2022/01/30 01:29:00;;;;;;;;;8.25;7.75;;;;;11.37;71.33;102622.72;4991115;27;46500;-70
2022/01/30 01:31:26;;;;;;;;;7.50;7.00;;;;;11.59;71.17;102664.91;4991330;27;45321;-69
2022/01/30 01:36:36;;;;;;;;;14.00;8.00;;;;;11.39;70.69;102625.47;4991726;27;45259;-72
2022/01/30 01:39:02;;;;;;;;;9.50;7.75;;;;;11.62;70.84;102662.41;4991164;28;46060;-70
2022/01/30 01:41:29;;;;;;;;;8.75;8.75;;;;;11.60;71.09;102647.13;4991341;28;45599;-72
2022/01/30 01:43:55;;;;;;;;;6.75;6.75;;;;;11.43;71.18;102628.41;4991302;27;45511;-69
2022/01/30 01:46:26;;;;;;;;;7.25;7.25;;;;;11.38;71.22;102615.59;4991290;27;45546;-69
2022/01/30 01:48:53;;;;;;;;;11.25;8.00;;;;;11.67;70.41;102662.66;4991329;27;47424;-69
2022/01/30 01:51:31;;;;;;;;;9.75;9.25;;;;;11.66;70.57;102657.22;4991596;27;45534;-71
2022/01/30 01:53:58;;;;;;;;;9.25;6.25;;;;;11.65;70.24;102650.97;4991315;28;45482;-71
2022/01/30 01:56:25;;;;;;;;;10.00;7.25;;;;;11.70;70.45;102652.13;4991116;28;45657;-69
2022/01/30 01:58:51;;;;;;;;;7.75;7.00;;;;;11.73;70.42;102659.38;4991298;27;46534;-71
2022/01/30 02:01:16;;;;;;;;;12.00;7.75;;;;;11.64;70.70;102651.78;4990975;28;45711;-69
2022/01/30 02:03:43;;;;;;;;;9.00;8.00;;;;;11.61;70.44;102652.56;4991413;28;45646;-69
2022/01/30 02:06:12;;;;;;;;;7.75;7.75;;;;;11.68;70.58;102677.91;4991449;28;45631;-71
2022/01/30 02:11:18;;;;;;;;;8.00;6.25;;;;;11.58;70.01;102643.41;4984211;28;45324;-69
2022/01/30 02:24:29;;;;;;;;;11.00;9.75;;;;;11.88;69.96;102656.56;4989866;27;45472;-69
2022/01/30 02:26:55;;;;;;;;;15.50;11.75;;;;;11.35;69.65;102552.16;4991553;27;45421;-69
2022/01/30 02:29:22;;;;;;;;;7.00;6.00;;;;;11.97;69.56;102654.41;4990883;27;47195;-68
2022/01/30 02:31:48;;;;;;;;;6.50;6.00;;;;;12.00;69.21;102653.66;4990539;27;45567;-72
2022/01/30 02:34:14;;;;;;;;;6.25;5.50;;;;;11.90;69.62;102629.03;4990489;27;45539;-71
2022/01/30 02:36:48;;;;;;;;;4.75;3.75;;;;;11.98;68.72;102651.81;4991312;27;45607;-70
2022/01/30 02:39:14;;;;;;;;;10.00;8.00;;;;;11.79;69.15;102623.13;4990369;27;45969;-69
2022/01/30 02:41:40;;;;;;;;;7.25;5.75;;;;;11.87;69.44;102636.91;4989807;28;45573;-70
2022/01/30 02:44:13;;;;;;;;;9.00;6.25;;;;;11.84;68.82;102631.38;4990610;27;45323;-69
2022/01/30 02:46:47;;;;;;;;;10.25;10.25;;;;;11.70;68.61;102582.50;4990874;28;45390;-70
2022/01/30 02:51:51;;;;;;;;;7.50;7.25;;;;;11.83;69.26;102591.13;4981820;28;45567;-69
2022/01/30 02:54:17;;;;;;;;;11.25;10.75;;;;;12.15;68.63;102654.44;4990529;28;45445;-70
2022/01/30 02:56:43;;;;;;;;;7.25;6.00;;;;;12.21;68.18;102659.16;4990864;27;45585;-69
2022/01/30 02:59:08;;;;;;;;;10.25;10.00;;;;;12.11;68.25;102650.69;4990714;27;45978;-69
2022/01/30 03:01:34;;;;;;;;;11.75;10.00;;;;;12.08;68.47;102633.53;4990577;28;45577;-68
2022/01/30 03:04:00;;;;;;;;;12.75;10.00;;;;;12.23;68.12;102662.88;4990700;27;45618;-69
2022/01/30 03:06:26;;;;;;;;;10.25;8.25;;;;;12.24;68.52;102664.69;4990259;28;45591;-70
2022/01/30 03:08:51;;;;;;;;;10.75;9.50;;;;;12.24;68.41;102664.69;4991892;28;45380;-69
2022/01/30 03:11:17;;;;;;;;;14.00;11.00;;;;;12.05;68.07;102615.53;4992801;28;45386;-70
2022/01/30 03:13:42;;;;;;;;;8.00;8.00;;;;;12.23;67.59;102653.06;4993229;27;45580;-71
2022/01/30 03:16:07;;;;;;;;;15.00;10.75;;;;;11.89;67.53;102610.22;4993571;27;45593;-69
2022/01/30 03:18:33;;;;;;;;;15.75;11.50;;;;;12.14;68.33;102647.22;4993268;27;46149;-69
2022/01/30 03:20:58;;;;;;;;;11.75;11.75;;;;;12.04;67.51;102624.41;4992347;27;45602;-69
2022/01/30 03:23:24;;;;;;;;;12.00;9.00;;;;;12.22;67.98;102661.94;4993634;27;45507;-71
2022/01/30 03:25:55;;;;;;;;;12.25;10.00;;;;;12.15;67.37;102652.66;5025467;27;45511;-70
2022/01/30 03:28:20;;;;;;;;;14.50;8.25;;;;;12.19;68.39;102664.44;4994905;27;46084;-69
2022/01/30 03:30:47;;;;;;;;;11.75;11.75;;;;;12.09;68.06;102657.75;4993034;27;45335;-70
2022/01/30 03:33:13;;;;;;;;;11.25;9.75;;;;;11.99;68.01;102642.00;4993454;27;45655;-69
2022/01/30 03:35:38;;;;;;;;;11.50;11.00;;;;;11.68;67.65;102593.94;4992856;27;46308;-68
2022/01/30 03:38:04;;;;;;;;;11.50;8.50;;;;;11.84;67.43;102628.72;4992794;27;46460;-69
2022/01/30 03:40:29;;;;;;;;;12.25;11.50;;;;;12.08;67.10;102661.25;4992581;27;45480;-69
2022/01/30 03:42:55;;;;;;;;;22.50;21.50;;;;;12.16;66.68;102665.22;4993460;27;46181;-69
2022/01/30 03:45:20;;;;;;;;;10.75;8.00;;;;;12.03;66.91;102649.38;4993498;28;45576;-70
2022/01/30 03:47:45;;;;;;;;;10.25;7.25;;;;;12.04;66.37;102644.94;4993450;27;45985;-70
2022/01/30 03:50:11;;;;;;;;;9.75;8.25;;;;;11.98;65.99;102624.13;4993773;27;45562;-68
2022/01/30 03:52:36;;;;;;;;;8.75;7.00;;;;;11.89;65.62;102607.53;4993368;27;45192;-69
2022/01/30 03:55:03;;;;;;;;;9.25;5.00;;;;;11.94;65.54;102624.78;4992968;27;45452;-70
2022/01/30 03:57:28;;;;;;;;;9.50;7.75;;;;;11.92;63.70;102627.38;4992793;28;45294;-70
2022/01/30 03:59:53;;;;;;;;;8.25;5.00;;;;;11.88;63.36;102619.06;4993317;28;45314;-68
2022/01/30 04:02:19;;;;;;;;;6.00;6.00;;;;;11.82;62.02;102616.09;4992729;27;45429;-69
2022/01/30 04:04:44;;;;;;;;;4.25;3.75;;;;;12.09;61.35;102664.81;4993403;27;45413;-69
2022/01/30 04:07:10;;;;;;;;;9.75;3.00;;;;;12.11;60.47;102668.50;4992984;28;46270;-69
2022/01/30 04:09:36;;;;;;;;;3.33;2.67;;;;;12.08;59.20;102668.38;4993250;27;45313;-69
2022/01/30 04:12:04;;;;;;;;;3.33;2.33;;;;;11.84;59.01;102638.53;4993033;27;45254;-70
2022/01/30 04:14:30;;;;;;;;;11.25;3.00;;;;;11.85;57.40;102649.31;4992979;27;45534;-70
2022/01/30 04:16:55;;;;;;;;;4.50;3.25;;;;;12.00;56.44;102677.78;4993453;27;46326;-69
2022/01/30 04:19:21;;;;;;;;;3.00;3.00;;;;;12.00;56.60;102677.78;4991985;28;45547;-71
2022/01/30 04:21:46;;;;;;;;;4.00;3.00;;;;;12.01;56.67;102677.84;4993438;27;45734;-68
2022/01/30 04:24:11;;;;;;;;;9.00;4.00;;;;;11.87;55.77;102654.75;4992487;27;45454;-70
2022/01/30 04:26:37;;;;;;;;;3.00;2.33;;;;;11.98;55.47;102686.63;4992202;27;52762;-69
2022/01/30 04:29:03;;;;;;;;;2.00;1.00;;;;;11.96;56.38;102685.66;4992606;27;45685;-69
2022/01/30 04:31:28;;;;;;;;;3.00;3.00;;;;;11.92;55.57;102678.28;4993185;27;45494;-69
2022/01/30 04:33:54;;;;;;;;;3.00;2.00;;;;;11.91;54.91;102681.81;4993098;28;45450;-70
2022/01/30 04:36:26;;;;;;;;;2.33;1.67;;;;;11.91;55.21;102680.84;4991744;27;45459;-68
2022/01/30 04:52:23;;;;;;;;;5.50;3.50;;;;;11.76;53.47;102697.03;4992391;27;45466;-69
2022/01/30 04:57:37;;;;;;;;;2.67;1.67;;;;;11.74;53.90;102701.38;4992548;27;45700;-70
2022/01/30 05:02:49;;;;;;;;;8.50;4.00;;;;;11.66;52.90;102694.72;4991933;28;45466;-68
2022/01/30 05:07:49;;;;;;;;;4.00;1.00;;;;;11.44;54.08;102653.41;4992212;27;46135;-69
2022/01/30 05:10:15;;;;;;;;;7.00;4.75;;;;;11.58;53.44;102679.16;4992243;27;45450;-68
2022/01/30 05:12:49;;;;;;;;;2.00;0.00;;;;;11.47;54.00;102661.59;4992175;27;45318;-68
2022/01/30 05:15:17;;;;;;;;;1.00;1.00;;;;;11.67;53.28;102713.53;4991300;28;45475;-68
2022/01/30 05:17:43;;;;;;;;;4.00;2.67;;;;;11.50;53.60;102683.19;4991452;27;45472;-70
2022/01/30 05:20:10;;;;;;;;;2.67;1.00;;;;;11.59;52.84;102696.13;4992047;27;45331;-70
2022/01/30 05:22:36;;;;;;;;;7.75;3.00;;;;;11.53;52.81;102690.44;4991491;28;45541;-71
2022/01/30 05:25:02;;;;;;;;;5.50;3.75;;;;;11.69;53.06;102718.97;4991886;27;45494;-69
2022/01/30 05:27:28;;;;;;;;;6.67;3.67;;;;;11.66;52.98;102713.44;4991367;27;46807;-69
2022/01/30 05:29:53;;;;;;;;;4.00;2.00;;;;;11.40;53.68;102671.06;4991915;28;45420;-69
2022/01/30 05:32:19;;;;;;;;;7.25;5.00;;;;;11.68;53.43;102727.81;4990957;28;45313;-70
2022/01/30 05:34:44;;;;;;;;;3.75;3.00;;;;;11.67;53.10;102723.34;4992014;28;45584;-70
2022/01/30 05:37:11;;;;;;;;;6.00;5.00;;;;;11.53;52.99;102704.78;4981258;27;46033;-69
2022/01/30 05:39:37;;;;;;;;;6.75;3.00;;;;;11.65;53.89;102723.25;4991955;28;45543;-69
2022/01/30 05:42:03;;;;;;;;;4.33;2.00;;;;;11.67;53.00;102717.97;4991722;27;45600;-69
2022/01/30 05:44:43;;;;;;;;;4.50;2.00;;;;;11.68;54.04;102725.16;4990648;28;45562;-69
2022/01/30 05:47:14;;;;;;;;;3.75;2.00;;;;;11.49;54.17;102691.13;4987742;27;46900;-69
2022/01/30 05:49:40;;;;;;;;;4.67;3.00;;;;;11.65;53.87;102719.63;4991962;27;45507;-68
2022/01/30 05:52:05;;;;;;;;;10.00;2.00;;;;;11.60;53.52;102706.94;4991189;27;45467;-68
2022/01/30 05:54:31;;;;;;;;;6.75;4.00;;;;;11.71;52.93;102733.34;4991575;27;45483;-70
2022/01/30 05:56:56;;;;;;;;;4.50;2.00;;;;;11.56;53.48;102710.25;4991483;28;48905;-69
2022/01/30 05:59:21;;;;;;;;;6.75;3.00;;;;;11.56;53.41;102712.94;4991500;27;46869;-70
2022/01/30 06:01:47;;;;;;;;;2.00;2.00;;;;;11.64;53.06;102721.41;4991407;27;45425;-70
2022/01/30 06:04:12;;;;;;;;;6.00;4.75;;;;;11.71;52.82;102730.69;4992220;27;45475;-70
2022/01/30 06:06:38;;;;;;;;;3.25;1.75;;;;;11.55;52.99;102713.78;4992212;28;52827;-70
2022/01/30 06:09:19;;;;;;;;;3.50;2.00;;;;;11.42;52.34;102701.50;4975442;28;45694;-70
2022/01/30 06:11:49;;;;;;;;;1.00;0.67;;;;;11.53;52.42;102726.19;4986082;28;45509;-69
2022/01/30 06:14:16;;;;;;;;;7.25;2.00;;;;;11.67;52.82;102729.59;4991133;28;45419;-69
2022/01/30 06:16:42;;;;;;;;;8.25;5.50;;;;;11.67;52.21;102737.63;4990999;27;47615;-67
2022/01/30 06:19:07;;;;;;;;;5.50;2.00;;;;;11.34;52.18;102688.56;4990469;28;45611;-69
2022/01/30 06:21:32;;;;;;;;;6.25;3.75;;;;;11.59;52.94;102752.34;4991262;28;45699;-70
2022/01/30 06:23:58;;;;;;;;;4.00;4.00;;;;;11.49;53.06;102742.00;4991291;27;45575;-70
2022/01/30 06:26:24;;;;;;;;;5.50;2.25;;;;;11.40;52.98;102743.31;5006049;27;46172;-70
2022/01/30 06:28:49;;;;;;;;;5.50;4.25;;;;;11.50;52.65;102752.78;5021941;27;45100;-69
2022/01/30 06:31:15;;;;;;;;;1.00;1.00;;;;;11.55;52.64;102770.00;5005566;27;45236;-69
2022/01/30 06:33:41;;;;;;;;;14.25;12.50;;;;;11.44;52.06;102745.31;4999618;27;45033;-69
2022/01/30 06:36:06;;;;;;;;;5.00;3.75;;;;;11.61;51.54;102772.09;4991052;28;45563;-70
2022/01/30 06:38:31;;;;;;;;;5.00;3.00;;;;;11.62;52.05;102763.25;5008063;28;45234;-70
2022/01/30 06:40:57;;;;;;;;;4.00;1.00;;;;;11.27;51.50;102716.72;5006967;28;45310;-69
2022/01/30 06:43:23;;;;;;;;;9.50;3.00;;;;;11.60;51.39;102755.13;4995714;28;45213;-69
2022/01/30 06:45:48;;;;;;;;;4.00;2.00;;;;;11.35;51.67;102709.09;5009123;27;45159;-70
2022/01/30 06:48:19;;;;;;;;;2.25;1.50;;;;;11.53;51.90;102771.69;5008415;28;45187;-69
2022/01/30 06:50:45;;;;;;;;;3.75;2.75;;;;;11.52;51.60;102772.53;5007240;28;45102;-68
2022/01/30 06:53:11;;;;;;;;;2.25;2.25;;;;;11.45;52.15;102767.69;4992988;27;45471;-69
2022/01/30 06:55:42;;;;;;;;;5.75;2.75;;;;;11.43;52.44;102767.59;4997292;27;46531;-68
2022/01/30 06:58:17;;;;;;;;;5.75;1.75;;;;;11.41;52.20;102766.56;4991314;28;45511;-69
2022/01/30 07:00:42;;;;;;;;;6.25;2.00;;;;;11.40;51.99;102761.13;4994312;28;45444;-68
2022/01/30 07:03:07;;;;;;;;;4.00;2.25;;;;;11.16;52.23;102729.50;4993622;27;45531;-68
2022/01/30 07:05:33;;;;;;;;;5.00;3.75;;;;;11.27;52.37;102766.63;4986374;28;46457;-68
2022/01/30 07:07:58;;;;;;;;;4.50;2.00;;;;;11.28;52.41;102773.84;4993022;28;45308;-68
2022/01/30 07:10:25;;;;;;;;;6.33;4.00;;;;;10.99;52.33;102723.22;4990979;28;45605;-68
2022/01/30 07:12:50;;;;;;;;;8.25;4.75;;;;;11.22;52.85;102772.66;4991035;27;45595;-68
2022/01/30 07:15:15;;;;;;;;;4.25;1.25;;;;;11.03;52.56;102762.66;4990617;28;48747;-69
2022/01/30 07:17:42;;;;;;;;;3.75;3.00;;;;;10.91;53.14;102753.03;4990603;28;45486;-68
2022/01/30 07:20:08;;;;;;;;;5.00;2.00;;;;;10.99;52.89;102778.47;4990709;27;45467;-68
2022/01/30 07:22:34;;;;;;;;;3.75;1.75;;;;;10.79;53.14;102754.16;4991145;27;45382;-68
2022/01/30 07:24:59;;;;;;;;;3.50;2.00;;;;;10.69;53.33;102760.72;4990174;28;45875;-70
2022/01/30 07:27:25;;;;;;;;;4.75;3.25;;;;;10.79;52.91;102783.59;4990624;27;45475;-68
2022/01/30 07:29:51;;;;;;;;;6.25;3.50;;;;;10.47;52.98;102742.50;4991019;28;45572;-68
2022/01/30 07:32:16;;;;;;;;;5.25;3.75;;;;;10.67;53.99;102794.47;4990802;27;45445;-68
2022/01/30 07:34:42;;;;;;;;;8.00;6.00;;;;;10.72;54.00;102801.84;4990785;28;45342;-68
2022/01/30 07:37:12;;;;;;;;;3.75;3.75;;;;;10.73;53.60;102809.03;4990615;28;45299;-70
2022/01/30 07:39:40;;;;;;;;;5.00;4.00;;;;;10.62;53.95;102797.69;4990667;28;45507;-69
2022/01/30 07:42:06;;;;;;;;;6.75;3.00;;;;;10.70;54.24;102817.78;4990641;28;45350;-69
2022/01/30 07:44:31;;;;;;;;;3.75;2.00;;;;;10.56;53.65;102803.63;4990195;28;46117;-69
2022/01/30 07:46:56;;;;;;;;;3.00;3.00;;;;;10.66;53.61;102829.16;4990298;27;45260;-68
2022/01/30 07:49:22;;;;;;;;;4.00;1.75;;;;;10.38;54.01;102773.09;4990537;28;45286;-70
2022/01/30 07:51:47;;;;;;;;;3.75;3.50;;;;;10.45;54.20;102799.38;4990683;28;45394;-70
2022/01/30 07:54:13;;;;;;;;;4.00;2.75;;;;;10.48;54.86;102796.88;4984150;27;46304;-70
2022/01/30 07:56:39;;;;;;;;;5.00;1.00;;;;;10.63;54.18;102827.19;4993858;28;45387;-70
2022/01/30 07:59:04;;;;;;;;;25.75;16.50;;;;;10.62;54.32;102822.66;4993842;28;45444;-67
2022/01/30 08:01:29;;;;;;;;;12.75;3.50;;;;;10.50;54.36;102805.91;4993577;28;45509;-69
2022/01/30 08:03:55;;;;;;;;;5.75;3.00;;;;;10.48;54.34;102800.47;4975409;28;45908;-71
2022/01/30 08:06:20;;;;;;;;;6.00;5.00;;;;;10.59;54.42;102829.59;4993077;28;45544;-70
2022/01/30 08:08:46;;;;;;;;;5.25;3.25;;;;;10.50;54.27;102801.47;4993417;27;45397;-70
2022/01/30 08:11:11;;;;;;;;;3.50;3.00;;;;;10.61;54.21;102819.91;4993452;27;45391;-69
2022/01/30 08:13:36;;;;;;;;;4.00;4.00;;;;;10.66;54.80;102838.06;4992888;27;45618;-70
2022/01/30 08:16:03;;;;;;;;;8.50;7.25;;;;;10.67;54.75;102839.94;4993285;27;45617;-70
2022/01/30 08:18:28;;;;;;;;;11.00;3.00;;;;;10.50;54.29;102809.50;4992991;27;45438;-69
2022/01/30 08:20:54;;;;;;;;;2.75;2.00;;;;;10.72;53.69;102841.94;4993095;28;45412;-71
2022/01/30 08:23:22;;;;;;;;;8.50;6.00;;;;;10.40;54.05;102791.06;4992663;27;46573;-69
2022/01/30 08:25:48;;;;;;;;;3.25;2.00;;;;;10.54;53.47;102801.66;4992448;27;45394;-70
2022/01/30 08:28:13;;;;;;;;;7.50;6.00;;;;;10.54;52.98;102791.88;4992829;27;45421;-70
2022/01/30 08:30:40;;;;;;;;;6.25;3.75;;;;;10.68;53.79;102814.09;4992992;28;45418;-69
2022/01/30 08:33:05;;;;;;;;;5.50;3.75;;;;;10.75;53.22;102810.94;4992646;27;45350;-70
2022/01/30 08:35:31;;;;;;;;;3.00;3.00;;;;;10.59;53.47;102786.81;4992365;28;45728;-70
2022/01/30 08:37:57;;;;;;;;;2.00;2.00;;;;;10.90;52.07;102839.44;4992435;27;45370;-70
2022/01/30 08:40:23;;;;;;;;;3.25;2.00;;;;;10.85;52.11;102837.41;4992925;27;45336;-71
2022/01/30 08:42:49;;;;;;;;;6.50;2.50;;;;;10.84;52.34;102840.91;4992571;28;46344;-69
2022/01/30 08:45:17;;;;;;;;;3.75;2.50;;;;;10.58;52.44;102785.00;4992475;27;45381;-71
2022/01/30 08:47:45;;;;;;;;;4.00;4.00;;;;;10.29;51.98;102728.03;4992767;28;45506;-70
2022/01/30 08:50:12;;;;;;;;;4.75;4.50;;;;;10.82;51.82;102834.56;4992736;28;45514;-70
2022/01/30 08:52:38;;;;;;;;;4.50;3.00;;;;;10.84;52.48;102835.56;4992043;28;45523;-69
2022/01/30 08:55:05;;;;;;;;;8.50;3.25;;;;;10.69;51.67;102802.56;4992037;27;45440;-69
2022/01/30 08:57:30;;;;;;;;;7.50;3.25;;;;;10.43;52.11;102755.63;4992516;27;45407;-69
2022/01/30 08:59:58;;;;;;;;;5.00;5.00;;;;;10.68;51.77;102795.41;4986502;28;45674;-70
2022/01/30 09:02:23;;;;;;;;;8.00;2.50;;;;;10.93;52.11;102843.19;4992215;27;45409;-70
2022/01/30 09:04:49;;;;;;;;;7.00;3.50;;;;;10.92;51.83;102840.44;4992663;27;45384;-70
2022/01/30 09:07:15;;;;;;;;;2.25;2.00;;;;;10.92;51.57;102840.44;4992281;28;45517;-70
2022/01/30 09:09:40;;;;;;;;;4.25;2.25;;;;;10.95;52.15;102845.97;4992258;28;45361;-70
2022/01/30 09:12:06;;;;;;;;;4.25;2.75;;;;;10.91;51.18;102838.63;4992082;28;45352;-71
2022/01/30 09:14:32;;;;;;;;;7.25;6.00;;;;;10.81;52.07;102816.66;4992069;28;45587;-70
2022/01/30 09:16:58;;;;;;;;;2.00;2.00;;;;;10.78;51.35;102808.47;4992500;27;45326;-70
2022/01/30 09:19:23;;;;;;;;;7.50;5.00;;;;;11.01;51.18;102838.31;4992479;28;45464;-70
2022/01/30 09:21:51;;;;;;;;;7.75;4.75;;;;;10.79;51.17;102802.28;4974050;27;46360;-71
2022/01/30 09:24:16;;;;;;;;;3.25;3.25;;;;;10.95;51.26;102841.53;4991984;27;45328;-70
2022/01/30 09:26:42;;;;;;;;;9.00;4.50;;;;;11.00;51.01;102841.81;4991709;28;45266;-69
2022/01/30 09:29:08;;;;;;;;;2.00;2.00;;;;;11.03;51.08;102844.66;4992834;27;45630;-70
2022/01/30 09:31:33;;;;;;;;;7.00;6.00;;;;;11.04;50.81;102847.44;4991662;27;46101;-70
2022/01/30 09:33:59;;;;;;;;;4.00;3.00;;;;;10.95;50.59;102841.53;4991945;27;45313;-70
2022/01/30 09:36:24;;;;;;;;;3.50;3.00;;;;;11.01;50.89;102855.28;4992061;27;45468;-71
2022/01/30 09:38:50;;;;;;;;;4.75;3.00;;;;;11.00;50.94;102856.09;4974271;28;45500;-70
2022/01/30 09:41:20;;;;;;;;;6.25;3.75;;;;;10.92;50.33;102841.34;4991928;27;47228;-69
2022/01/30 09:43:45;;;;;;;;;3.75;3.00;;;;;10.84;50.44;102824.88;4991730;28;45305;-69
2022/01/30 09:46:11;;;;;;;;;13.50;8.25;;;;;10.94;50.25;102855.75;4992018;28;45980;-70
2022/01/30 09:48:38;;;;;;;;;9.25;6.25;;;;;10.92;50.81;102859.16;4992485;27;45452;-71
2022/01/30 09:51:10;;;;;;;;;11.00;8.00;;;;;11.01;50.48;102862.38;4991461;27;46363;-70
2022/01/30 09:53:35;;;;;;;;;5.75;2.50;;;;;10.96;49.98;102850.50;4991755;28;45472;-71
2022/01/30 09:56:03;;;;;;;;;7.75;4.25;;;;;11.00;50.62;102847.16;4973945;28;45644;-71
2022/01/30 09:58:30;;;;;;;;;7.50;5.00;;;;;11.11;50.11;102858.50;4991944;28;45374;-70
2022/01/30 10:00:55;;;;;;;;;3.00;3.00;;;;;11.15;50.07;102863.19;4991207;28;45488;-71
2022/01/30 10:03:28;;;;;;;;;4.00;4.00;;;;;11.16;49.71;102863.28;4991760;28;45647;-71
2022/01/30 10:06:08;;;;;;;;;3.50;3.25;;;;;11.18;49.57;102866.94;4991701;27;45516;-70
2022/01/30 10:08:41;;;;;;;;;7.00;3.75;;;;;11.09;50.00;102838.72;4992016;28;45545;-71
2022/01/30 10:11:26;;;;;;;;;14.00;11.25;;;;;11.26;49.43;102859.38;4991210;28;46185;-71
2022/01/30 10:14:02;;;;;;;;;3.50;3.50;;;;;11.31;49.51;102860.56;4991217;28;45553;-71
2022/01/30 10:16:27;;;;;;;;;8.50;6.00;;;;;11.35;49.48;102857.22;4991361;27;45746;-70
2022/01/30 10:18:53;;;;;;;;;5.75;4.50;;;;;11.33;49.08;102861.56;4990996;28;45638;-70
2022/01/30 10:21:20;;;;;;;;;5.50;4.00;;;;;10.98;49.34;102809.63;4991444;28;45654;-71
2022/01/30 10:23:45;;;;;;;;;3.75;2.75;;;;;11.11;49.62;102831.75;4991373;28;45399;-70
2022/01/30 10:26:12;;;;;;;;;4.50;4.50;;;;;11.30;49.39;102860.47;4991546;28;45453;-69
2022/01/30 10:28:38;;;;;;;;;9.00;5.50;;;;;11.24;49.71;102828.94;4991301;28;45310;-71
2022/01/30 10:31:05;;;;;;;;;9.25;8.00;;;;;11.45;48.65;102858.69;4990705;28;46453;-71
2022/01/30 10:33:46;;;;;;;;;7.00;5.00;;;;;11.47;48.89;102856.09;4990565;28;45437;-70
2022/01/30 10:36:21;;;;;;;;;8.25;5.25;;;;;11.42;48.81;102863.84;4990863;27;45644;-71
2022/01/30 10:38:57;;;;;;;;;6.50;5.50;;;;;11.29;48.59;102838.16;4991452;28;45441;-71
2022/01/30 10:41:38;;;;;;;;;6.75;4.00;;;;;11.39;48.38;102855.66;4991025;27;46524;-69
2022/01/30 10:44:08;;;;;;;;;4.75;4.75;;;;;11.24;48.26;102829.84;4990896;27;45382;-70
2022/01/30 10:46:40;;;;;;;;;7.50;5.00;;;;;11.44;48.11;102844.34;4990736;27;45366;-68
2022/01/30 10:49:11;;;;;;;;;9.25;7.75;;;;;11.55;48.65;102846.72;4990945;27;45382;-70
2022/01/30 10:51:37;;;;;;;;;6.75;5.25;;;;;11.63;48.27;102856.09;4990330;27;45437;-70
2022/01/30 10:54:06;;;;;;;;;4.75;4.00;;;;;11.43;48.19;102806.78;4990313;27;45427;-70
2022/01/30 10:56:32;;;;;;;;;4.25;4.25;;;;;11.43;48.06;102798.75;4991022;27;45484;-71
2022/01/30 10:59:09;;;;;;;;;3.00;1.75;;;;;11.85;46.64;102866.25;4990869;28;45619;-69
2022/01/30 11:01:37;;;;;;;;;7.75;5.00;;;;;11.74;47.96;102830.84;4990403;28;45510;-71
2022/01/30 11:04:03;;;;;;;;;7.25;7.25;;;;;11.76;48.02;102815.78;4990262;28;45565;-71
2022/01/30 11:06:30;;;;;;;;;15.75;7.50;;;;;12.10;47.10;102840.84;4990950;28;45534;-71
2022/01/30 11:09:05;;;;;;;;;6.50;4.25;;;;;12.14;46.62;102840.16;4985084;28;45612;-70
2022/01/30 11:11:41;;;;;;;;;10.00;7.75;;;;;12.00;47.54;102793.88;5012268;27;45895;-70
2022/01/30 11:19:21;;;;;;;;;11.25;8.50;;;;;12.53;46.44;102825.25;4976053;28;45873;-70
2022/01/30 11:22:02;;;;;;;;;8.25;5.00;;;;;12.63;46.76;102821.28;4990737;27;46276;-71
2022/01/30 11:24:28;;;;;;;;;9.25;5.50;;;;;12.54;46.13;102792.25;4990838;27;45295;-71
2022/01/30 11:26:56;;;;;;;;;6.50;3.75;;;;;12.72;46.43;102818.16;4973102;27;45477;-70
2022/01/30 11:29:22;;;;;;;;;10.25;5.25;;;;;12.81;46.02;102828.44;4990810;27;45595;-71
2022/01/30 11:31:49;;;;;;;;;9.75;9.75;;;;;12.84;45.94;102817.88;4974839;28;47476;-71
2022/01/30 11:34:14;;;;;;;;;11.50;6.00;;;;;12.61;45.31;102763.06;4993714;27;45598;-71
2022/01/30 11:36:43;;;;;;;;;9.75;7.75;;;;;12.80;45.57;102794.41;4993377;27;45492;-71
2022/01/30 11:39:14;;;;;;;;;7.00;4.75;;;;;12.88;45.43;102795.69;4994310;27;45656;-71
2022/01/30 11:41:39;;;;;;;;;6.50;6.50;;;;;12.66;45.54;102754.41;4993451;27;46038;-71
2022/01/30 11:44:19;;;;;;;;;10.25;7.25;;;;;12.92;45.61;102800.38;4993093;28;45534;-71
2022/01/30 11:46:58;;;;;;;;;12.25;6.00;;;;;12.83;46.19;102798.16;4993316;27;45605;-70
2022/01/30 11:50:06;;;;;;;;;7.25;5.25;;;;;12.79;46.67;102790.81;4993506;28;45476;-71
2022/01/30 11:52:53;;;;;;;;;7.00;6.00;;;;;12.48;45.51;102758.84;4992640;28;45730;-70
2022/01/30 11:55:51;;;;;;;;;7.25;6.00;;;;;12.59;46.61;102787.13;4975332;28;45421;-71
2022/01/30 11:58:29;;;;;;;;;6.00;4.50;;;;;12.51;45.67;102777.75;4992719;27;45365;-71
2022/01/30 12:00:54;;;;;;;;;15.00;10.75;;;;;12.44;46.41;102767.53;4993147;27;45402;-71
2022/01/30 12:03:23;;;;;;;;;9.75;7.25;;;;;12.59;45.56;102781.75;4992753;28;45388;-70
2022/01/30 12:05:48;;;;;;;;;11.00;6.50;;;;;12.66;46.63;102774.94;4992546;27;45532;-71
2022/01/30 12:08:50;;;;;;;;;10.75;8.25;;;;;12.70;46.04;102767.13;4992827;27;45625;-71
2022/01/30 12:11:34;;;;;;;;;6.50;4.75;;;;;12.78;45.15;102770.19;4996161;27;45569;-70
2022/01/30 12:14:19;;;;;;;;;7.50;6.25;;;;;12.65;45.20;102733.78;4992667;27;45489;-71
2022/01/30 12:16:46;;;;;;;;;9.00;7.00;;;;;12.94;44.19;102757.53;4977901;28;45541;-71
2022/01/30 12:19:13;;;;;;;;;15.75;7.25;;;;;12.88;44.31;102752.78;4992885;28;45558;-70
2022/01/30 12:21:39;;;;;;;;;6.00;5.00;;;;;12.96;44.08;102755.84;4992947;27;45433;-71
2022/01/30 12:24:31;;;;;;;;;6.00;6.00;;;;;12.49;44.65;102665.09;4992594;28;46316;-70
2022/01/30 12:27:00;;;;;;;;;10.50;6.50;;;;;12.80;44.19;102713.91;4974666;28;45387;-71